Oxon Hill, MD (20745)

5:26 AM EDT on September 02, 2015 (GMT -0400)
Rosemont Park | | Change Station
CLOSE
Current Station
Personal Weather Station
Location: Alexandria, VA
Elevation: 26 ft
Nearby Weather Stations

Elev 26 ft 38.81 °N, 77.06 °W | Updated 2 minutes ago

Partly Cloudy
Partly Cloudy
74.6 °F
Feels Like 74 °F
N
0.0
Wind Variable Wind from WNW
Gusts 0.0 mph

Today
High -- | Low -- °F
--% Chance of Precip.
Yesterday
High -- | Low -- °F
Precip. -- in
6:37 AM 7:37 PM
Waning Gibbous, 82% visible
Pressure 30.03 in
Visibility 10.0 miles
Clouds Few 9000 ft
Overcast 25000 ft
Heat Index 74 °F
Dew Point 71 °F
Humidity 88%
Rainfall 0.00 in
Snow Depth Not available.
UV 0 out of 12
Pollen 10.60 out of 12
Air Quality Not available.
Flu Activity Not available.
METAR KDCA 020852Z 20003KT 10SM FEW090 OVC250 25/22 A3003 RMK AO2 SLP168 T02500222 56005
Pressure 30.03 in
Visibility 10.0 miles
Clouds Few 9000 ft
Overcast 25000 ft
Heat Index 74 °F
Dew Point 71 °F
Humidity 88%
Rainfall 0.00 in
Snow Depth Not available.
UV 0 out of 12
Pollen 10.60 out of 12
Air Quality Not available.
Flu Activity Not available.
METAR KDCA 020852Z 20003KT 10SM FEW090 OVC250 25/22 A3003 RMK AO2 SLP168 T02500222 56005

10-Day Weather Forecast

×

Almanac

Astronomy

Sep. 02, 2015 Rise Set
Actual Time
Civil Twilight
Nautical Twilight
Astronomical Twilight
Moon
Length of Visible Light
Length of Day
Tomorrow will be .
, % of the Moon is Illuminated

Today's Extremes

State Highs State Lows

Community

WunderPhotos

Upload Photos

1,851,730 photos uploaded!

WunderBlogs® & News

Nearby

Air Quality

  Air Quality AQ Index Pollutant
Not available.

Snow Depth

Station Depth Elevation

Earthquake Activity

City Distance Mag. Time & Date
Minimum magnitude displayed is 2.5.

Coastal Water Temperatures

Place Temperature

Stations

Nearby Weather Stations

Station Location Temp. Windchill Dew Point Humidity Wind Precip. Elev Updated Type